sensor_id;sensor_type;location;lat;lon;timestamp;P1;durP1;ratioP1;P2;durP2;ratioP2
20609;SDS011;10463;52.378;9.688;2022-09-29T00:01:02;2.10;;;1.50;;
20609;SDS011;10463;52.378;9.688;2022-09-29T00:03:47;1.80;;;1.30;;
20609;SDS011;10463;52.378;9.688;2022-09-29T00:06:32;2.07;;;1.30;;
20609;SDS011;10463;52.378;9.688;2022-09-29T00:09:19;2.27;;;2.03;;
20609;SDS011;10463;52.378;9.688;2022-09-29T00:12:04;2.60;;;1.70;;
20609;SDS011;10463;52.378;9.688;2022-09-29T00:14:49;1.97;;;1.50;;
20609;SDS011;10463;52.378;9.688;2022-09-29T00:17:34;2.03;;;1.70;;
20609;SDS011;10463;52.378;9.688;2022-09-29T00:20:19;2.83;;;1.90;;
20609;SDS011;10463;52.378;9.688;2022-09-29T00:23:05;3.10;;;2.23;;
20609;SDS011;10463;52.378;9.688;2022-09-29T00:25:59;2.83;;;1.77;;
20609;SDS011;10463;52.378;9.688;2022-09-29T00:28:46;2.43;;;2.10;;
20609;SDS011;10463;52.378;9.688;2022-09-29T00:31:33;2.67;;;1.87;;
20609;SDS011;10463;52.378;9.688;2022-09-29T00:34:18;3.37;;;2.77;;
20609;SDS011;10463;52.378;9.688;2022-09-29T00:37:03;2.77;;;2.30;;
20609;SDS011;10463;52.378;9.688;2022-09-29T00:39:48;2.53;;;2.00;;
20609;SDS011;10463;52.378;9.688;2022-09-29T00:42:35;2.93;;;2.50;;
20609;SDS011;10463;52.378;9.688;2022-09-29T00:45:21;2.97;;;2.10;;
20609;SDS011;10463;52.378;9.688;2022-09-29T00:48:12;2.90;;;1.73;;
20609;SDS011;10463;52.378;9.688;2022-09-29T00:51:01;3.67;;;2.67;;
20609;SDS011;10463;52.378;9.688;2022-09-29T00:53:47;2.80;;;2.50;;
20609;SDS011;10463;52.378;9.688;2022-09-29T00:56:32;3.03;;;2.40;;
20609;SDS011;10463;52.378;9.688;2022-09-29T00:59:21;2.67;;;2.37;;
20609;SDS011;10463;52.378;9.688;2022-09-29T01:02:15;3.30;;;2.17;;
20609;SDS011;10463;52.378;9.688;2022-09-29T01:05:02;2.87;;;2.20;;
20609;SDS011;10463;52.378;9.688;2022-09-29T01:07:51;5.50;;;2.60;;
20609;SDS011;10463;52.378;9.688;2022-09-29T01:10:36;2.77;;;2.13;;
20609;SDS011;10463;52.378;9.688;2022-09-29T01:13:23;3.20;;;2.50;;
20609;SDS011;10463;52.378;9.688;2022-09-29T01:16:09;2.60;;;2.40;;
20609;SDS011;10463;52.378;9.688;2022-09-29T01:18:54;3.20;;;2.67;;
20609;SDS011;10463;52.378;9.688;2022-09-29T01:21:44;2.67;;;2.30;;
20609;SDS011;10463;52.378;9.688;2022-09-29T01:31:26;2.90;;;2.60;;
20609;SDS011;10463;52.378;9.688;2022-09-29T01:34:20;4.70;;;2.60;;
20609;SDS011;10463;52.378;9.688;2022-09-29T01:37:13;3.23;;;2.83;;
20609;SDS011;10463;52.378;9.688;2022-09-29T01:40:07;3.27;;;2.13;;
20609;SDS011;10463;52.378;9.688;2022-09-29T01:42:58;3.03;;;2.10;;
20609;SDS011;10463;52.378;9.688;2022-09-29T01:45:50;3.10;;;2.70;;
20609;SDS011;10463;52.378;9.688;2022-09-29T01:48:48;2.57;;;2.20;;
20609;SDS011;10463;52.378;9.688;2022-09-29T01:51:39;3.10;;;2.27;;
20609;SDS011;10463;52.378;9.688;2022-09-29T01:54:32;5.80;;;2.57;;
20609;SDS011;10463;52.378;9.688;2022-09-29T01:57:23;2.33;;;2.13;;
20609;SDS011;10463;52.378;9.688;2022-09-29T02:00:14;2.40;;;1.87;;
20609;SDS011;10463;52.378;9.688;2022-09-29T02:03:04;3.07;;;2.53;;
20609;SDS011;10463;52.378;9.688;2022-09-29T02:05:57;4.60;;;3.37;;
20609;SDS011;10463;52.378;9.688;2022-09-29T02:08:47;3.20;;;2.83;;
20609;SDS011;10463;52.378;9.688;2022-09-29T02:11:36;3.20;;;2.47;;
20609;SDS011;10463;52.378;9.688;2022-09-29T02:14:24;3.20;;;2.53;;
20609;SDS011;10463;52.378;9.688;2022-09-29T02:17:13;2.60;;;2.10;;
20609;SDS011;10463;52.378;9.688;2022-09-29T02:20:03;2.83;;;2.50;;
20609;SDS011;10463;52.378;9.688;2022-09-29T02:22:51;2.93;;;2.40;;
20609;SDS011;10463;52.378;9.688;2022-09-29T02:25:37;3.33;;;2.30;;
20609;SDS011;10463;52.378;9.688;2022-09-29T02:28:23;3.60;;;2.50;;
20609;SDS011;10463;52.378;9.688;2022-09-29T02:31:08;2.47;;;2.10;;
20609;SDS011;10463;52.378;9.688;2022-09-29T02:33:53;3.30;;;2.37;;
20609;SDS011;10463;52.378;9.688;2022-09-29T02:36:41;3.70;;;2.63;;
20609;SDS011;10463;52.378;9.688;2022-09-29T02:39:42;3.23;;;2.40;;
20609;SDS011;10463;52.378;9.688;2022-09-29T02:42:38;2.50;;;2.20;;
20609;SDS011;10463;52.378;9.688;2022-09-29T02:45:32;3.30;;;2.50;;
20609;SDS011;10463;52.378;9.688;2022-09-29T02:48:35;3.30;;;2.70;;
20609;SDS011;10463;52.378;9.688;2022-09-29T02:51:44;3.03;;;2.43;;
20609;SDS011;10463;52.378;9.688;2022-09-29T02:54:40;2.60;;;2.10;;
20609;SDS011;10463;52.378;9.688;2022-09-29T02:57:36;3.03;;;2.30;;
20609;SDS011;10463;52.378;9.688;2022-09-29T03:00:28;3.00;;;2.40;;
20609;SDS011;10463;52.378;9.688;2022-09-29T03:03:14;3.10;;;2.43;;
20609;SDS011;10463;52.378;9.688;2022-09-29T03:05:59;3.10;;;2.40;;
20609;SDS011;10463;52.378;9.688;2022-09-29T03:08:44;2.83;;;2.20;;
20609;SDS011;10463;52.378;9.688;2022-09-29T03:11:30;3.40;;;2.80;;
20609;SDS011;10463;52.378;9.688;2022-09-29T03:14:15;3.60;;;2.53;;
20609;SDS011;10463;52.378;9.688;2022-09-29T03:17:00;2.93;;;2.40;;
20609;SDS011;10463;52.378;9.688;2022-09-29T03:19:45;4.20;;;2.63;;
20609;SDS011;10463;52.378;9.688;2022-09-29T03:22:30;2.90;;;2.17;;
20609;SDS011;10463;52.378;9.688;2022-09-29T03:25:15;3.00;;;2.53;;
20609;SDS011;10463;52.378;9.688;2022-09-29T03:28:02;3.00;;;2.43;;
20609;SDS011;10463;52.378;9.688;2022-09-29T03:30:46;2.67;;;2.47;;
20609;SDS011;10463;52.378;9.688;2022-09-29T03:33:32;3.20;;;2.60;;
20609;SDS011;10463;52.378;9.688;2022-09-29T03:36:18;3.77;;;2.30;;
20609;SDS011;10463;52.378;9.688;2022-09-29T03:39:03;3.00;;;2.50;;
20609;SDS011;10463;52.378;9.688;2022-09-29T03:41:48;3.00;;;2.23;;
20609;SDS011;10463;52.378;9.688;2022-09-29T03:44:35;3.03;;;2.37;;
20609;SDS011;10463;52.378;9.688;2022-09-29T03:47:20;3.30;;;2.60;;
20609;SDS011;10463;52.378;9.688;2022-09-29T03:50:06;2.60;;;2.20;;
20609;SDS011;10463;52.378;9.688;2022-09-29T03:52:51;2.77;;;2.27;;
20609;SDS011;10463;52.378;9.688;2022-09-29T03:55:36;3.13;;;2.03;;
20609;SDS011;10463;52.378;9.688;2022-09-29T03:58:21;2.93;;;2.37;;
20609;SDS011;10463;52.378;9.688;2022-09-29T04:01:07;3.00;;;2.30;;
20609;SDS011;10463;52.378;9.688;2022-09-29T04:03:52;3.40;;;2.53;;
20609;SDS011;10463;52.378;9.688;2022-09-29T04:06:37;2.40;;;2.17;;
20609;SDS011;10463;52.378;9.688;2022-09-29T04:09:22;3.47;;;2.80;;
20609;SDS011;10463;52.378;9.688;2022-09-29T04:12:06;2.87;;;2.00;;
20609;SDS011;10463;52.378;9.688;2022-09-29T04:14:51;3.17;;;2.30;;
20609;SDS011;10463;52.378;9.688;2022-09-29T04:17:38;2.77;;;2.17;;
20609;SDS011;10463;52.378;9.688;2022-09-29T04:20:23;2.83;;;2.33;;
20609;SDS011;10463;52.378;9.688;2022-09-29T04:23:08;2.80;;;2.37;;
20609;SDS011;10463;52.378;9.688;2022-09-29T04:25:53;2.60;;;2.17;;
20609;SDS011;10463;52.378;9.688;2022-09-29T04:28:39;2.70;;;2.30;;
20609;SDS011;10463;52.378;9.688;2022-09-29T04:31:24;2.70;;;2.33;;
20609;SDS011;10463;52.378;9.688;2022-09-29T04:34:10;3.50;;;3.17;;
20609;SDS011;10463;52.378;9.688;2022-09-29T04:36:56;2.83;;;2.20;;
20609;SDS011;10463;52.378;9.688;2022-09-29T04:39:41;2.87;;;2.27;;
20609;SDS011;10463;52.378;9.688;2022-09-29T04:42:26;3.77;;;2.53;;
20609;SDS011;10463;52.378;9.688;2022-09-29T04:45:11;4.63;;;2.80;;
20609;SDS011;10463;52.378;9.688;2022-09-29T04:47:56;3.13;;;2.60;;
20609;SDS011;10463;52.378;9.688;2022-09-29T04:50:43;3.07;;;2.60;;
20609;SDS011;10463;52.378;9.688;2022-09-29T04:53:28;4.30;;;2.40;;
20609;SDS011;10463;52.378;9.688;2022-09-29T04:56:13;4.00;;;2.63;;
20609;SDS011;10463;52.378;9.688;2022-09-29T04:58:58;3.00;;;2.47;;
20609;SDS011;10463;52.378;9.688;2022-09-29T05:01:42;3.43;;;2.77;;
20609;SDS011;10463;52.378;9.688;2022-09-29T05:04:27;3.20;;;2.83;;
20609;SDS011;10463;52.378;9.688;2022-09-29T05:07:14;3.40;;;2.90;;
20609;SDS011;10463;52.378;9.688;2022-09-29T05:09:59;3.60;;;3.13;;
20609;SDS011;10463;52.378;9.688;2022-09-29T05:12:47;3.03;;;2.60;;
20609;SDS011;10463;52.378;9.688;2022-09-29T05:15:32;3.67;;;2.70;;
20609;SDS011;10463;52.378;9.688;2022-09-29T05:18:18;3.70;;;3.33;;
20609;SDS011;10463;52.378;9.688;2022-09-29T05:21:03;3.87;;;3.33;;
20609;SDS011;10463;52.378;9.688;2022-09-29T05:23:51;4.03;;;3.53;;
20609;SDS011;10463;52.378;9.688;2022-09-29T05:26:35;3.80;;;3.00;;
20609;SDS011;10463;52.378;9.688;2022-09-29T05:29:20;4.00;;;3.30;;
20609;SDS011;10463;52.378;9.688;2022-09-29T05:32:06;4.27;;;3.57;;
20609;SDS011;10463;52.378;9.688;2022-09-29T05:34:51;3.83;;;3.40;;
20609;SDS011;10463;52.378;9.688;2022-09-29T05:37:36;4.23;;;3.23;;
20609;SDS011;10463;52.378;9.688;2022-09-29T05:40:22;3.70;;;3.30;;
20609;SDS011;10463;52.378;9.688;2022-09-29T05:43:08;4.20;;;3.80;;
20609;SDS011;10463;52.378;9.688;2022-09-29T05:45:52;5.47;;;4.17;;
20609;SDS011;10463;52.378;9.688;2022-09-29T05:48:43;4.83;;;3.90;;
20609;SDS011;10463;52.378;9.688;2022-09-29T05:51:29;4.13;;;3.73;;
20609;SDS011;10463;52.378;9.688;2022-09-29T05:54:14;4.90;;;4.40;;
20609;SDS011;10463;52.378;9.688;2022-09-29T05:57:00;4.60;;;4.13;;
20609;SDS011;10463;52.378;9.688;2022-09-29T05:59:45;4.30;;;3.90;;
20609;SDS011;10463;52.378;9.688;2022-09-29T06:02:30;6.17;;;4.47;;
20609;SDS011;10463;52.378;9.688;2022-09-29T06:05:16;4.00;;;3.60;;
20609;SDS011;10463;52.378;9.688;2022-09-29T06:08:01;5.70;;;4.97;;
20609;SDS011;10463;52.378;9.688;2022-09-29T06:10:47;5.50;;;4.80;;
20609;SDS011;10463;52.378;9.688;2022-09-29T06:13:35;4.67;;;4.17;;
20609;SDS011;10463;52.378;9.688;2022-09-29T06:16:23;4.97;;;4.40;;
20609;SDS011;10463;52.378;9.688;2022-09-29T06:19:09;5.23;;;4.20;;
20609;SDS011;10463;52.378;9.688;2022-09-29T06:21:54;5.20;;;3.73;;
20609;SDS011;10463;52.378;9.688;2022-09-29T06:24:39;8.10;;;4.60;;
20609;SDS011;10463;52.378;9.688;2022-09-29T06:27:24;6.27;;;4.83;;
20609;SDS011;10463;52.378;9.688;2022-09-29T06:30:12;6.37;;;5.13;;
20609;SDS011;10463;52.378;9.688;2022-09-29T06:32:57;6.80;;;5.80;;
20609;SDS011;10463;52.378;9.688;2022-09-29T06:35:45;7.43;;;6.00;;
20609;SDS011;10463;52.378;9.688;2022-09-29T06:38:49;7.63;;;5.43;;
20609;SDS011;10463;52.378;9.688;2022-09-29T06:41:34;8.27;;;6.10;;
20609;SDS011;10463;52.378;9.688;2022-09-29T06:44:19;7.40;;;5.57;;
20609;SDS011;10463;52.378;9.688;2022-09-29T06:47:06;6.30;;;5.43;;
20609;SDS011;10463;52.378;9.688;2022-09-29T06:49:51;6.50;;;5.60;;
20609;SDS011;10463;52.378;9.688;2022-09-29T06:52:37;6.50;;;5.70;;
20609;SDS011;10463;52.378;9.688;2022-09-29T06:55:23;6.47;;;5.23;;
20609;SDS011;10463;52.378;9.688;2022-09-29T06:58:08;6.17;;;5.53;;
20609;SDS011;10463;52.378;9.688;2022-09-29T07:00:53;7.33;;;6.07;;
20609;SDS011;10463;52.378;9.688;2022-09-29T07:03:41;9.40;;;7.00;;
20609;SDS011;10463;52.378;9.688;2022-09-29T07:06:26;7.23;;;6.20;;
20609;SDS011;10463;52.378;9.688;2022-09-29T07:09:12;6.53;;;5.93;;
20609;SDS011;10463;52.378;9.688;2022-09-29T07:12:00;8.60;;;5.97;;
20609;SDS011;10463;52.378;9.688;2022-09-29T07:14:45;6.83;;;5.97;;
20609;SDS011;10463;52.378;9.688;2022-09-29T07:17:31;6.37;;;5.60;;
20609;SDS011;10463;52.378;9.688;2022-09-29T07:20:17;8.67;;;6.10;;
20609;SDS011;10463;52.378;9.688;2022-09-29T07:23:02;6.80;;;4.50;;
20609;SDS011;10463;52.378;9.688;2022-09-29T07:25:48;6.93;;;5.60;;
20609;SDS011;10463;52.378;9.688;2022-09-29T07:28:34;5.37;;;4.30;;
20609;SDS011;10463;52.378;9.688;2022-09-29T07:31:20;4.70;;;4.23;;
20609;SDS011;10463;52.378;9.688;2022-09-29T07:34:05;4.90;;;3.80;;
20609;SDS011;10463;52.378;9.688;2022-09-29T07:36:52;5.30;;;4.50;;
20609;SDS011;10463;52.378;9.688;2022-09-29T07:39:37;6.40;;;4.10;;
20609;SDS011;10463;52.378;9.688;2022-09-29T07:42:23;6.60;;;4.57;;
20609;SDS011;10463;52.378;9.688;2022-09-29T07:45:14;4.63;;;4.03;;
20609;SDS011;10463;52.378;9.688;2022-09-29T07:48:00;4.50;;;3.70;;
20609;SDS011;10463;52.378;9.688;2022-09-29T07:50:45;5.63;;;4.60;;
20609;SDS011;10463;52.378;9.688;2022-09-29T07:53:31;5.60;;;4.47;;
20609;SDS011;10463;52.378;9.688;2022-09-29T07:56:19;4.00;;;3.60;;
20609;SDS011;10463;52.378;9.688;2022-09-29T07:59:05;4.03;;;3.20;;
20609;SDS011;10463;52.378;9.688;2022-09-29T08:01:51;3.83;;;2.97;;
20609;SDS011;10463;52.378;9.688;2022-09-29T08:04:36;3.87;;;3.43;;
20609;SDS011;10463;52.378;9.688;2022-09-29T08:07:21;3.80;;;3.40;;
20609;SDS011;10463;52.378;9.688;2022-09-29T08:10:08;4.00;;;3.20;;
20609;SDS011;10463;52.378;9.688;2022-09-29T08:12:53;3.97;;;3.20;;
20609;SDS011;10463;52.378;9.688;2022-09-29T08:15:39;5.60;;;4.30;;
20609;SDS011;10463;52.378;9.688;2022-09-29T08:18:24;3.63;;;2.93;;
20609;SDS011;10463;52.378;9.688;2022-09-29T08:21:10;4.50;;;3.63;;
20609;SDS011;10463;52.378;9.688;2022-09-29T08:23:57;4.70;;;3.30;;
20609;SDS011;10463;52.378;9.688;2022-09-29T08:26:45;3.83;;;2.97;;
20609;SDS011;10463;52.378;9.688;2022-09-29T08:29:29;3.30;;;2.90;;
20609;SDS011;10463;52.378;9.688;2022-09-29T08:32:14;3.70;;;3.00;;
20609;SDS011;10463;52.378;9.688;2022-09-29T08:35:00;3.87;;;2.67;;
20609;SDS011;10463;52.378;9.688;2022-09-29T08:37:45;3.33;;;2.70;;
20609;SDS011;10463;52.378;9.688;2022-09-29T08:40:32;3.80;;;3.13;;
20609;SDS011;10463;52.378;9.688;2022-09-29T08:43:21;3.70;;;3.27;;
20609;SDS011;10463;52.378;9.688;2022-09-29T08:46:12;4.40;;;3.40;;
20609;SDS011;10463;52.378;9.688;2022-09-29T08:49:09;3.80;;;2.63;;
20609;SDS011;10463;52.378;9.688;2022-09-29T08:52:02;4.27;;;3.40;;
20609;SDS011;10463;52.378;9.688;2022-09-29T08:54:53;3.17;;;2.60;;
20609;SDS011;10463;52.378;9.688;2022-09-29T08:57:42;3.33;;;2.60;;
20609;SDS011;10463;52.378;9.688;2022-09-29T09:00:34;3.10;;;2.80;;
20609;SDS011;10463;52.378;9.688;2022-09-29T09:03:52;3.83;;;2.87;;
20609;SDS011;10463;52.378;9.688;2022-09-29T09:06:58;2.87;;;2.33;;
20609;SDS011;10463;52.378;9.688;2022-09-29T09:10:00;3.10;;;2.80;;
20609;SDS011;10463;52.378;9.688;2022-09-29T09:13:04;3.63;;;3.07;;
20609;SDS011;10463;52.378;9.688;2022-09-29T09:16:05;3.07;;;2.77;;
20609;SDS011;10463;52.378;9.688;2022-09-29T09:19:16;3.53;;;3.23;;
20609;SDS011;10463;52.378;9.688;2022-09-29T09:22:24;3.60;;;2.70;;
20609;SDS011;10463;52.378;9.688;2022-09-29T09:25:18;2.67;;;2.33;;
20609;SDS011;10463;52.378;9.688;2022-09-29T09:28:12;3.17;;;2.47;;
20609;SDS011;10463;52.378;9.688;2022-09-29T09:31:03;3.90;;;2.97;;
20609;SDS011;10463;52.378;9.688;2022-09-29T09:33:55;3.27;;;2.73;;
20609;SDS011;10463;52.378;9.688;2022-09-29T09:36:44;3.23;;;2.33;;
20609;SDS011;10463;52.378;9.688;2022-09-29T09:39:35;3.70;;;2.90;;
20609;SDS011;10463;52.378;9.688;2022-09-29T09:42:23;3.63;;;2.87;;
20609;SDS011;10463;52.378;9.688;2022-09-29T09:45:12;3.20;;;2.70;;
20609;SDS011;10463;52.378;9.688;2022-09-29T09:48:13;3.00;;;2.40;;
20609;SDS011;10463;52.378;9.688;2022-09-29T09:51:17;3.80;;;3.40;;
20609;SDS011;10463;52.378;9.688;2022-09-29T09:54:15;2.80;;;2.23;;
20609;SDS011;10463;52.378;9.688;2022-09-29T09:57:17;3.60;;;3.07;;
20609;SDS011;10463;52.378;9.688;2022-09-29T10:00:25;3.17;;;2.33;;
20609;SDS011;10463;52.378;9.688;2022-09-29T10:03:16;2.63;;;2.17;;
20609;SDS011;10463;52.378;9.688;2022-09-29T10:06:01;3.23;;;2.50;;
20609;SDS011;10463;52.378;9.688;2022-09-29T10:08:49;2.87;;;2.00;;
20609;SDS011;10463;52.378;9.688;2022-09-29T10:11:34;2.90;;;2.53;;
20609;SDS011;10463;52.378;9.688;2022-09-29T10:14:21;2.40;;;1.73;;
20609;SDS011;10463;52.378;9.688;2022-09-29T10:17:09;2.57;;;2.37;;
20609;SDS011;10463;52.378;9.688;2022-09-29T10:19:59;2.90;;;2.23;;
20609;SDS011;10463;52.378;9.688;2022-09-29T10:22:47;3.23;;;2.50;;
20609;SDS011;10463;52.378;9.688;2022-09-29T10:25:32;3.20;;;2.90;;
20609;SDS011;10463;52.378;9.688;2022-09-29T10:28:18;2.47;;;2.17;;
20609;SDS011;10463;52.378;9.688;2022-09-29T10:31:14;2.50;;;2.07;;
20609;SDS011;10463;52.378;9.688;2022-09-29T10:34:14;2.50;;;2.00;;
20609;SDS011;10463;52.378;9.688;2022-09-29T10:37:03;3.10;;;2.20;;
20609;SDS011;10463;52.378;9.688;2022-09-29T10:39:51;2.90;;;2.20;;
20609;SDS011;10463;52.378;9.688;2022-09-29T10:42:48;2.30;;;1.73;;
20609;SDS011;10463;52.378;9.688;2022-09-29T10:45:42;2.43;;;2.17;;
20609;SDS011;10463;52.378;9.688;2022-09-29T10:48:31;2.60;;;2.17;;
20609;SDS011;10463;52.378;9.688;2022-09-29T10:51:18;2.60;;;2.20;;
20609;SDS011;10463;52.378;9.688;2022-09-29T10:54:09;2.77;;;1.97;;
20609;SDS011;10463;52.378;9.688;2022-09-29T10:56:59;3.30;;;2.13;;
20609;SDS011;10463;52.378;9.688;2022-09-29T10:59:56;2.43;;;1.90;;
20609;SDS011;10463;52.378;9.688;2022-09-29T11:02:41;2.63;;;2.10;;
20609;SDS011;10463;52.378;9.688;2022-09-29T11:05:27;2.70;;;2.13;;
20609;SDS011;10463;52.378;9.688;2022-09-29T11:08:12;2.30;;;1.80;;
20609;SDS011;10463;52.378;9.688;2022-09-29T11:11:06;3.10;;;2.37;;
20609;SDS011;10463;52.378;9.688;2022-09-29T11:14:00;2.80;;;2.50;;
20609;SDS011;10463;52.378;9.688;2022-09-29T11:16:52;2.30;;;1.93;;
20609;SDS011;10463;52.378;9.688;2022-09-29T11:19:39;2.23;;;1.83;;
20609;SDS011;10463;52.378;9.688;2022-09-29T11:22:55;2.50;;;2.00;;
20609;SDS011;10463;52.378;9.688;2022-09-29T11:29:14;2.40;;;2.03;;
20609;SDS011;10463;52.378;9.688;2022-09-29T11:32:35;2.77;;;2.03;;
20609;SDS011;10463;52.378;9.688;2022-09-29T11:35:38;2.70;;;2.00;;
20609;SDS011;10463;52.378;9.688;2022-09-29T11:38:56;2.33;;;1.97;;
20609;SDS011;10463;52.378;9.688;2022-09-29T11:42:14;2.63;;;2.20;;
20609;SDS011;10463;52.378;9.688;2022-09-29T11:45:09;3.17;;;2.40;;
20609;SDS011;10463;52.378;9.688;2022-09-29T11:48:33;2.23;;;1.70;;
20609;SDS011;10463;52.378;9.688;2022-09-29T11:51:49;2.33;;;1.53;;
20609;SDS011;10463;52.378;9.688;2022-09-29T11:54:57;2.40;;;1.90;;
20609;SDS011;10463;52.378;9.688;2022-09-29T11:58:00;2.67;;;2.10;;
20609;SDS011;10463;52.378;9.688;2022-09-29T12:01:05;2.47;;;1.83;;
20609;SDS011;10463;52.378;9.688;2022-09-29T12:04:28;2.03;;;1.77;;
20609;SDS011;10463;52.378;9.688;2022-09-29T12:07:29;2.37;;;1.77;;
20609;SDS011;10463;52.378;9.688;2022-09-29T12:10:32;2.43;;;1.77;;
20609;SDS011;10463;52.378;9.688;2022-09-29T12:13:37;2.00;;;1.80;;
20609;SDS011;10463;52.378;9.688;2022-09-29T12:16:31;2.70;;;1.80;;
20609;SDS011;10463;52.378;9.688;2022-09-29T12:19:20;2.60;;;1.83;;
20609;SDS011;10463;52.378;9.688;2022-09-29T12:22:08;2.50;;;2.07;;
20609;SDS011;10463;52.378;9.688;2022-09-29T12:24:57;2.07;;;1.77;;
20609;SDS011;10463;52.378;9.688;2022-09-29T12:27:45;2.17;;;1.40;;
20609;SDS011;10463;52.378;9.688;2022-09-29T12:30:36;2.57;;;1.73;;
20609;SDS011;10463;52.378;9.688;2022-09-29T12:33:30;2.20;;;1.60;;
20609;SDS011;10463;52.378;9.688;2022-09-29T12:36:27;2.00;;;1.50;;
20609;SDS011;10463;52.378;9.688;2022-09-29T12:39:33;2.53;;;1.77;;
20609;SDS011;10463;52.378;9.688;2022-09-29T12:42:47;2.33;;;1.60;;
20609;SDS011;10463;52.378;9.688;2022-09-29T12:45:53;2.70;;;2.13;;
20609;SDS011;10463;52.378;9.688;2022-09-29T12:48:48;2.23;;;1.90;;
20609;SDS011;10463;52.378;9.688;2022-09-29T12:51:40;2.03;;;1.50;;
20609;SDS011;10463;52.378;9.688;2022-09-29T12:54:29;2.50;;;1.90;;
20609;SDS011;10463;52.378;9.688;2022-09-29T12:57:20;1.97;;;1.57;;
20609;SDS011;10463;52.378;9.688;2022-09-29T13:00:10;1.60;;;1.23;;
20609;SDS011;10463;52.378;9.688;2022-09-29T13:03:14;2.10;;;1.70;;
20609;SDS011;10463;52.378;9.688;2022-09-29T13:13:34;1.60;;;1.17;;
20609;SDS011;10463;52.378;9.688;2022-09-29T13:16:50;2.00;;;1.40;;
20609;SDS011;10463;52.378;9.688;2022-09-29T13:19:57;2.20;;;1.40;;
20609;SDS011;10463;52.378;9.688;2022-09-29T13:23:13;2.00;;;1.50;;
20609;SDS011;10463;52.378;9.688;2022-09-29T13:26:25;2.20;;;1.43;;
20609;SDS011;10463;52.378;9.688;2022-09-29T13:29:25;2.20;;;1.77;;
20609;SDS011;10463;52.378;9.688;2022-09-29T13:32:12;2.23;;;1.50;;
20609;SDS011;10463;52.378;9.688;2022-09-29T13:34:59;1.87;;;1.23;;
20609;SDS011;10463;52.378;9.688;2022-09-29T13:37:50;2.40;;;1.30;;
20609;SDS011;10463;52.378;9.688;2022-09-29T13:40:37;1.80;;;1.40;;
20609;SDS011;10463;52.378;9.688;2022-09-29T13:43:38;1.83;;;1.40;;
20609;SDS011;10463;52.378;9.688;2022-09-29T13:46:45;2.30;;;1.60;;
20609;SDS011;10463;52.378;9.688;2022-09-29T13:49:30;1.77;;;1.20;;
20609;SDS011;10463;52.378;9.688;2022-09-29T13:52:29;2.07;;;1.60;;
20609;SDS011;10463;52.378;9.688;2022-09-29T13:55:49;1.70;;;1.10;;
20609;SDS011;10463;52.378;9.688;2022-09-29T13:58:37;1.93;;;1.30;;
20609;SDS011;10463;52.378;9.688;2022-09-29T14:01:39;1.90;;;1.20;;
20609;SDS011;10463;52.378;9.688;2022-09-29T14:04:44;1.93;;;1.40;;
20609;SDS011;10463;52.378;9.688;2022-09-29T14:07:40;2.20;;;1.43;;
20609;SDS011;10463;52.378;9.688;2022-09-29T14:10:30;2.23;;;1.37;;
20609;SDS011;10463;52.378;9.688;2022-09-29T14:13:24;2.50;;;1.67;;
20609;SDS011;10463;52.378;9.688;2022-09-29T14:16:17;1.87;;;1.33;;
20609;SDS011;10463;52.378;9.688;2022-09-29T14:19:38;1.70;;;1.17;;
20609;SDS011;10463;52.378;9.688;2022-09-29T14:22:57;2.00;;;1.40;;
20609;SDS011;10463;52.378;9.688;2022-09-29T14:25:51;2.23;;;1.63;;
20609;SDS011;10463;52.378;9.688;2022-09-29T14:28:40;2.83;;;1.70;;
20609;SDS011;10463;52.378;9.688;2022-09-29T14:31:27;1.83;;;1.20;;
20609;SDS011;10463;52.378;9.688;2022-09-29T14:34:14;1.57;;;1.07;;
20609;SDS011;10463;52.378;9.688;2022-09-29T14:37:01;2.00;;;1.30;;
20609;SDS011;10463;52.378;9.688;2022-09-29T14:39:48;1.90;;;1.10;;
20609;SDS011;10463;52.378;9.688;2022-09-29T14:43:02;2.00;;;1.60;;
20609;SDS011;10463;52.378;9.688;2022-09-29T14:46:28;1.80;;;1.37;;
20609;SDS011;10463;52.378;9.688;2022-09-29T14:50:07;2.40;;;1.60;;
20609;SDS011;10463;52.378;9.688;2022-09-29T14:53:35;1.87;;;1.30;;
20609;SDS011;10463;52.378;9.688;2022-09-29T14:56:41;2.10;;;1.47;;
20609;SDS011;10463;52.378;9.688;2022-09-29T14:59:43;1.97;;;1.30;;
20609;SDS011;10463;52.378;9.688;2022-09-29T15:02:40;2.03;;;1.23;;
20609;SDS011;10463;52.378;9.688;2022-09-29T15:05:29;1.70;;;1.30;;
20609;SDS011;10463;52.378;9.688;2022-09-29T15:08:22;2.00;;;1.40;;
20609;SDS011;10463;52.378;9.688;2022-09-29T15:11:30;1.83;;;1.20;;
20609;SDS011;10463;52.378;9.688;2022-09-29T15:14:23;1.60;;;1.20;;
20609;SDS011;10463;52.378;9.688;2022-09-29T15:17:14;2.17;;;1.57;;
20609;SDS011;10463;52.378;9.688;2022-09-29T15:20:09;1.83;;;1.30;;
20609;SDS011;10463;52.378;9.688;2022-09-29T15:23:08;2.20;;;1.50;;
20609;SDS011;10463;52.378;9.688;2022-09-29T15:26:08;1.90;;;1.40;;
20609;SDS011;10463;52.378;9.688;2022-09-29T15:28:56;1.90;;;1.50;;
20609;SDS011;10463;52.378;9.688;2022-09-29T15:31:45;2.20;;;1.60;;
20609;SDS011;10463;52.378;9.688;2022-09-29T15:34:31;2.03;;;1.47;;
20609;SDS011;10463;52.378;9.688;2022-09-29T15:37:22;1.80;;;1.30;;
20609;SDS011;10463;52.378;9.688;2022-09-29T15:40:10;2.00;;;1.47;;
20609;SDS011;10463;52.378;9.688;2022-09-29T15:43:00;2.33;;;1.83;;
20609;SDS011;10463;52.378;9.688;2022-09-29T15:45:52;2.50;;;1.70;;
20609;SDS011;10463;52.378;9.688;2022-09-29T15:48:42;2.80;;;1.77;;
20609;SDS011;10463;52.378;9.688;2022-09-29T15:52:05;2.33;;;1.63;;
20609;SDS011;10463;52.378;9.688;2022-09-29T15:54:57;1.80;;;1.30;;
20609;SDS011;10463;52.378;9.688;2022-09-29T15:57:43;2.10;;;1.30;;
20609;SDS011;10463;52.378;9.688;2022-09-29T16:00:44;2.90;;;1.57;;
20609;SDS011;10463;52.378;9.688;2022-09-29T16:03:34;2.77;;;1.70;;
20609;SDS011;10463;52.378;9.688;2022-09-29T16:06:27;1.97;;;1.60;;
20609;SDS011;10463;52.378;9.688;2022-09-29T16:09:17;3.07;;;1.77;;
20609;SDS011;10463;52.378;9.688;2022-09-29T16:12:05;2.07;;;1.43;;
20609;SDS011;10463;52.378;9.688;2022-09-29T16:14:52;2.63;;;1.53;;
20609;SDS011;10463;52.378;9.688;2022-09-29T16:17:38;2.13;;;1.67;;
20609;SDS011;10463;52.378;9.688;2022-09-29T16:20:25;1.90;;;1.57;;
20609;SDS011;10463;52.378;9.688;2022-09-29T16:23:19;2.50;;;1.70;;
20609;SDS011;10463;52.378;9.688;2022-09-29T16:26:15;2.27;;;1.63;;
20609;SDS011;10463;52.378;9.688;2022-09-29T16:29:06;1.80;;;1.40;;
20609;SDS011;10463;52.378;9.688;2022-09-29T16:32:35;2.13;;;1.50;;
20609;SDS011;10463;52.378;9.688;2022-09-29T16:35:56;4.07;;;1.80;;
20609;SDS011;10463;52.378;9.688;2022-09-29T16:38:46;2.40;;;1.70;;
20609;SDS011;10463;52.378;9.688;2022-09-29T16:41:37;2.73;;;1.23;;
20609;SDS011;10463;52.378;9.688;2022-09-29T16:44:27;1.80;;;1.40;;
20609;SDS011;10463;52.378;9.688;2022-09-29T16:47:14;2.27;;;1.30;;
20609;SDS011;10463;52.378;9.688;2022-09-29T16:50:02;2.00;;;1.50;;
20609;SDS011;10463;52.378;9.688;2022-09-29T16:52:53;2.20;;;1.57;;
20609;SDS011;10463;52.378;9.688;2022-09-29T16:55:40;2.03;;;1.60;;
20609;SDS011;10463;52.378;9.688;2022-09-29T16:58:26;2.10;;;1.30;;
20609;SDS011;10463;52.378;9.688;2022-09-29T17:01:12;1.63;;;1.33;;
20609;SDS011;10463;52.378;9.688;2022-09-29T17:03:56;1.73;;;1.27;;
20609;SDS011;10463;52.378;9.688;2022-09-29T17:06:45;2.00;;;1.40;;
20609;SDS011;10463;52.378;9.688;2022-09-29T17:09:31;1.53;;;1.03;;
20609;SDS011;10463;52.378;9.688;2022-09-29T17:12:17;2.17;;;1.20;;
20609;SDS011;10463;52.378;9.688;2022-09-29T17:15:02;2.17;;;1.63;;
20609;SDS011;10463;52.378;9.688;2022-09-29T17:17:48;1.83;;;1.20;;
20609;SDS011;10463;52.378;9.688;2022-09-29T17:20:34;1.50;;;1.00;;
20609;SDS011;10463;52.378;9.688;2022-09-29T17:23:19;1.50;;;0.90;;
20609;SDS011;10463;52.378;9.688;2022-09-29T17:26:10;1.90;;;1.20;;
20609;SDS011;10463;52.378;9.688;2022-09-29T17:29:22;1.97;;;1.40;;
20609;SDS011;10463;52.378;9.688;2022-09-29T17:32:10;2.00;;;1.30;;